sensor_id;sensor_type;location;lat;lon;timestamp;temperature;humidity
4922;DHT22;16625;53.624;10.106;2022-09-09T00:00:54;14.00;99.90
4922;DHT22;16625;53.624;10.106;2022-09-09T00:03:26;14.40;99.90
4922;DHT22;16625;53.624;10.106;2022-09-09T00:06:01;14.20;99.90
4922;DHT22;16625;53.624;10.106;2022-09-09T00:08:38;14.10;99.90
4922;DHT22;16625;53.624;10.106;2022-09-09T00:11:12;14.70;99.90
4922;DHT22;16625;53.624;10.106;2022-09-09T00:13:46;14.10;99.90
4922;DHT22;16625;53.624;10.106;2022-09-09T00:16:17;14.30;99.90
4922;DHT22;16625;53.624;10.106;2022-09-09T00:18:52;14.20;99.90
4922;DHT22;16625;53.624;10.106;2022-09-09T00:21:26;14.40;99.90
4922;DHT22;16625;53.624;10.106;2022-09-09T00:23:58;14.60;99.90
4922;DHT22;16625;53.624;10.106;2022-09-09T00:26:32;14.20;99.90
4922;DHT22;16625;53.624;10.106;2022-09-09T00:29:09;14.20;99.90
4922;DHT22;16625;53.624;10.106;2022-09-09T00:31:39;14.30;99.90
4922;DHT22;16625;53.624;10.106;2022-09-09T00:34:12;14.30;99.90
4922;DHT22;16625;53.624;10.106;2022-09-09T00:36:40;14.30;99.90
4922;DHT22;16625;53.624;10.106;2022-09-09T00:39:15;14.30;99.90
4922;DHT22;16625;53.624;10.106;2022-09-09T00:41:51;14.30;99.90
4922;DHT22;16625;53.624;10.106;2022-09-09T00:44:27;14.30;99.90
4922;DHT22;16625;53.624;10.106;2022-09-09T00:49:57;14.20;99.90
4922;DHT22;16625;53.624;10.106;2022-09-09T00:52:33;14.20;99.90
4922;DHT22;16625;53.624;10.106;2022-09-09T00:55:07;14.40;99.90
4922;DHT22;16625;53.624;10.106;2022-09-09T00:57:38;14.20;99.90
4922;DHT22;16625;53.624;10.106;2022-09-09T01:00:19;14.20;99.90
4922;DHT22;16625;53.624;10.106;2022-09-09T01:02:53;14.20;99.90
4922;DHT22;16625;53.624;10.106;2022-09-09T01:05:30;14.20;99.90
4922;DHT22;16625;53.624;10.106;2022-09-09T01:08:02;14.20;99.90
4922;DHT22;16625;53.624;10.106;2022-09-09T01:10:38;14.20;99.90
4922;DHT22;16625;53.624;10.106;2022-09-09T01:13:15;14.20;99.90
4922;DHT22;16625;53.624;10.106;2022-09-09T01:15:47;14.20;99.90
4922;DHT22;16625;53.624;10.106;2022-09-09T01:18:17;14.20;99.90
4922;DHT22;16625;53.624;10.106;2022-09-09T01:20:49;14.20;99.90
4922;DHT22;16625;53.624;10.106;2022-09-09T01:23:32;14.20;99.90
4922;DHT22;16625;53.624;10.106;2022-09-09T01:26:21;14.10;99.90
4922;DHT22;16625;53.624;10.106;2022-09-09T01:28:51;14.10;99.90
4922;DHT22;16625;53.624;10.106;2022-09-09T01:31:21;14.10;99.90
4922;DHT22;16625;53.624;10.106;2022-09-09T01:33:48;14.10;99.90
4922;DHT22;16625;53.624;10.106;2022-09-09T01:36:21;14.10;99.90
4922;DHT22;16625;53.624;10.106;2022-09-09T01:38:51;14.10;99.90
4922;DHT22;16625;53.624;10.106;2022-09-09T01:41:19;14.00;99.90
4922;DHT22;16625;53.624;10.106;2022-09-09T01:43:47;14.60;99.90
4922;DHT22;16625;53.624;10.106;2022-09-09T01:46:14;14.00;99.90
4922;DHT22;16625;53.624;10.106;2022-09-09T01:48:43;14.00;99.90
4922;DHT22;16625;53.624;10.106;2022-09-09T01:51:11;14.00;99.90
4922;DHT22;16625;53.624;10.106;2022-09-09T01:53:39;14.00;99.90
4922;DHT22;16625;53.624;10.106;2022-09-09T01:56:23;14.20;99.90
4922;DHT22;16625;53.624;10.106;2022-09-09T01:59:07;14.00;99.90
4922;DHT22;16625;53.624;10.106;2022-09-09T02:01:46;13.90;99.90
4922;DHT22;16625;53.624;10.106;2022-09-09T02:04:26;14.50;99.90
4922;DHT22;16625;53.624;10.106;2022-09-09T02:06:56;13.90;99.90
4922;DHT22;16625;53.624;10.106;2022-09-09T02:09:25;14.80;99.90
4922;DHT22;16625;53.624;10.106;2022-09-09T02:11:59;14.70;99.90
4922;DHT22;16625;53.624;10.106;2022-09-09T02:14:31;13.90;99.90
4922;DHT22;16625;53.624;10.106;2022-09-09T02:17:05;13.80;99.90
4922;DHT22;16625;53.624;10.106;2022-09-09T02:19:37;13.80;99.90
4922;DHT22;16625;53.624;10.106;2022-09-09T02:22:06;14.10;99.90
4922;DHT22;16625;53.624;10.106;2022-09-09T02:24:37;13.80;99.90
4922;DHT22;16625;53.624;10.106;2022-09-09T02:27:08;13.80;99.90
4922;DHT22;16625;53.624;10.106;2022-09-09T02:29:37;13.70;99.90
4922;DHT22;16625;53.624;10.106;2022-09-09T02:32:07;13.70;99.90
4922;DHT22;16625;53.624;10.106;2022-09-09T02:34:43;13.70;99.90
4922;DHT22;16625;53.624;10.106;2022-09-09T02:37:11;13.70;99.90
4922;DHT22;16625;53.624;10.106;2022-09-09T02:39:38;13.70;99.90
4922;DHT22;16625;53.624;10.106;2022-09-09T02:42:06;13.70;99.90
4922;DHT22;16625;53.624;10.106;2022-09-09T02:44:33;13.70;99.90
4922;DHT22;16625;53.624;10.106;2022-09-09T02:47:14;13.70;99.90
4922;DHT22;16625;53.624;10.106;2022-09-09T02:49:51;13.60;99.90
4922;DHT22;16625;53.624;10.106;2022-09-09T02:52:26;13.60;99.90
4922;DHT22;16625;53.624;10.106;2022-09-09T02:55:04;14.70;99.90
4922;DHT22;16625;53.624;10.106;2022-09-09T02:57:35;13.60;99.90
4922;DHT22;16625;53.624;10.106;2022-09-09T03:00:04;14.20;99.90
4922;DHT22;16625;53.624;10.106;2022-09-09T03:02:31;13.60;99.90
4922;DHT22;16625;53.624;10.106;2022-09-09T03:04:58;13.60;99.90
4922;DHT22;16625;53.624;10.106;2022-09-09T03:07:24;13.70;99.90
4922;DHT22;16625;53.624;10.106;2022-09-09T03:09:54;13.60;99.90
4922;DHT22;16625;53.624;10.106;2022-09-09T03:12:21;13.60;99.90
4922;DHT22;16625;53.624;10.106;2022-09-09T03:14:49;13.60;99.90
4922;DHT22;16625;53.624;10.106;2022-09-09T03:17:16;13.60;99.90
4922;DHT22;16625;53.624;10.106;2022-09-09T03:19:43;13.60;99.90
4922;DHT22;16625;53.624;10.106;2022-09-09T03:22:10;13.60;99.90
4922;DHT22;16625;53.624;10.106;2022-09-09T03:24:39;13.60;99.90
4922;DHT22;16625;53.624;10.106;2022-09-09T03:27:06;13.60;99.90
4922;DHT22;16625;53.624;10.106;2022-09-09T03:29:33;13.70;99.90
4922;DHT22;16625;53.624;10.106;2022-09-09T03:32:01;13.50;99.90
4922;DHT22;16625;53.624;10.106;2022-09-09T03:34:28;13.50;99.90
4922;DHT22;16625;53.624;10.106;2022-09-09T03:36:55;13.50;99.90
4922;DHT22;16625;53.624;10.106;2022-09-09T03:39:21;13.50;99.90
4922;DHT22;16625;53.624;10.106;2022-09-09T03:41:48;13.50;99.90
4922;DHT22;16625;53.624;10.106;2022-09-09T03:44:15;13.50;99.90
4922;DHT22;16625;53.624;10.106;2022-09-09T03:46:42;13.50;99.90
4922;DHT22;16625;53.624;10.106;2022-09-09T03:49:10;13.50;99.90
4922;DHT22;16625;53.624;10.106;2022-09-09T03:51:37;14.00;99.90
4922;DHT22;16625;53.624;10.106;2022-09-09T03:54:04;14.00;99.90
4922;DHT22;16625;53.624;10.106;2022-09-09T03:56:33;13.40;99.90
4922;DHT22;16625;53.624;10.106;2022-09-09T03:59:00;13.50;99.90
4922;DHT22;16625;53.624;10.106;2022-09-09T04:01:27;13.40;99.90
4922;DHT22;16625;53.624;10.106;2022-09-09T04:03:54;13.40;99.90
4922;DHT22;16625;53.624;10.106;2022-09-09T04:06:24;13.70;99.90
4922;DHT22;16625;53.624;10.106;2022-09-09T04:08:51;13.40;99.90
4922;DHT22;16625;53.624;10.106;2022-09-09T04:11:19;13.30;99.90
4922;DHT22;16625;53.624;10.106;2022-09-09T04:13:46;14.30;99.90
4922;DHT22;16625;53.624;10.106;2022-09-09T04:16:13;13.30;99.90
4922;DHT22;16625;53.624;10.106;2022-09-09T04:18:40;13.30;99.90
4922;DHT22;16625;53.624;10.106;2022-09-09T04:21:08;13.30;99.90
4922;DHT22;16625;53.624;10.106;2022-09-09T04:23:37;13.30;99.90
4922;DHT22;16625;53.624;10.106;2022-09-09T04:26:04;13.30;99.90
4922;DHT22;16625;53.624;10.106;2022-09-09T04:28:33;13.30;99.90
4922;DHT22;16625;53.624;10.106;2022-09-09T04:31:04;13.20;99.90
4922;DHT22;16625;53.624;10.106;2022-09-09T04:33:31;13.60;99.90
4922;DHT22;16625;53.624;10.106;2022-09-09T04:35:59;13.10;99.90
4922;DHT22;16625;53.624;10.106;2022-09-09T04:38:25;13.10;99.90
4922;DHT22;16625;53.624;10.106;2022-09-09T04:40:53;13.40;99.90
4922;DHT22;16625;53.624;10.106;2022-09-09T04:43:21;13.00;99.90
4922;DHT22;16625;53.624;10.106;2022-09-09T04:45:51;13.10;99.90
4922;DHT22;16625;53.624;10.106;2022-09-09T04:48:18;13.00;99.90
4922;DHT22;16625;53.624;10.106;2022-09-09T04:50:54;13.00;99.90
4922;DHT22;16625;53.624;10.106;2022-09-09T04:53:21;13.00;99.90
4922;DHT22;16625;53.624;10.106;2022-09-09T04:55:48;13.10;99.90
4922;DHT22;16625;53.624;10.106;2022-09-09T04:58:16;13.10;99.90
4922;DHT22;16625;53.624;10.106;2022-09-09T05:00:43;13.20;99.90
4922;DHT22;16625;53.624;10.106;2022-09-09T05:03:10;13.30;99.90
4922;DHT22;16625;53.624;10.106;2022-09-09T05:05:38;13.20;99.90
4922;DHT22;16625;53.624;10.106;2022-09-09T05:08:06;13.20;99.90
4922;DHT22;16625;53.624;10.106;2022-09-09T05:10:35;13.30;99.90
4922;DHT22;16625;53.624;10.106;2022-09-09T05:13:03;13.30;99.90
4922;DHT22;16625;53.624;10.106;2022-09-09T05:15:32;13.30;99.90
4922;DHT22;16625;53.624;10.106;2022-09-09T05:17:59;13.30;99.90
4922;DHT22;16625;53.624;10.106;2022-09-09T05:20:26;13.30;99.90
4922;DHT22;16625;53.624;10.106;2022-09-09T05:22:53;13.30;99.90
4922;DHT22;16625;53.624;10.106;2022-09-09T05:25:20;13.30;99.90
4922;DHT22;16625;53.624;10.106;2022-09-09T05:27:47;13.20;99.90
4922;DHT22;16625;53.624;10.106;2022-09-09T05:30:15;13.30;99.90
4922;DHT22;16625;53.624;10.106;2022-09-09T05:32:43;13.20;99.90
4922;DHT22;16625;53.624;10.106;2022-09-09T05:35:10;13.20;99.90
4922;DHT22;16625;53.624;10.106;2022-09-09T05:37:38;14.20;99.90
4922;DHT22;16625;53.624;10.106;2022-09-09T05:40:06;13.30;99.90
4922;DHT22;16625;53.624;10.106;2022-09-09T05:42:33;13.30;99.90
4922;DHT22;16625;53.624;10.106;2022-09-09T05:44:59;13.30;99.90
4922;DHT22;16625;53.624;10.106;2022-09-09T05:47:26;13.30;99.90
4922;DHT22;16625;53.624;10.106;2022-09-09T05:49:55;14.10;99.90
4922;DHT22;16625;53.624;10.106;2022-09-09T05:52:22;13.40;99.90
4922;DHT22;16625;53.624;10.106;2022-09-09T05:54:51;14.30;99.90
4922;DHT22;16625;53.624;10.106;2022-09-09T05:57:17;13.60;99.90
4922;DHT22;16625;53.624;10.106;2022-09-09T05:59:45;13.70;99.90
4922;DHT22;16625;53.624;10.106;2022-09-09T06:02:12;13.80;99.90
4922;DHT22;16625;53.624;10.106;2022-09-09T06:04:39;13.90;99.90
4922;DHT22;16625;53.624;10.106;2022-09-09T06:07:07;14.00;99.90
4922;DHT22;16625;53.624;10.106;2022-09-09T06:09:35;14.10;99.90
4922;DHT22;16625;53.624;10.106;2022-09-09T06:12:03;14.20;99.90
4922;DHT22;16625;53.624;10.106;2022-09-09T06:14:29;14.20;99.90
4922;DHT22;16625;53.624;10.106;2022-09-09T06:16:56;13.80;99.90
4922;DHT22;16625;53.624;10.106;2022-09-09T06:19:23;14.30;99.90
4922;DHT22;16625;53.624;10.106;2022-09-09T06:21:51;14.60;99.90
4922;DHT22;16625;53.624;10.106;2022-09-09T06:24:20;14.40;99.90
4922;DHT22;16625;53.624;10.106;2022-09-09T06:26:47;14.50;99.90
4922;DHT22;16625;53.624;10.106;2022-09-09T06:29:14;14.50;99.90
4922;DHT22;16625;53.624;10.106;2022-09-09T06:31:41;14.50;99.90
4922;DHT22;16625;53.624;10.106;2022-09-09T06:34:08;14.50;99.90
4922;DHT22;16625;53.624;10.106;2022-09-09T06:36:37;14.50;99.90
4922;DHT22;16625;53.624;10.106;2022-09-09T06:39:05;14.80;99.90
4922;DHT22;16625;53.624;10.106;2022-09-09T06:41:33;14.70;99.90
4922;DHT22;16625;53.624;10.106;2022-09-09T06:44:00;14.60;99.90
4922;DHT22;16625;53.624;10.106;2022-09-09T06:46:28;14.70;99.90
4922;DHT22;16625;53.624;10.106;2022-09-09T06:48:56;14.80;99.90
4922;DHT22;16625;53.624;10.106;2022-09-09T06:51:28;14.90;99.90
4922;DHT22;16625;53.624;10.106;2022-09-09T06:53:56;14.90;99.90
4922;DHT22;16625;53.624;10.106;2022-09-09T06:56:24;15.40;99.90
4922;DHT22;16625;53.624;10.106;2022-09-09T06:58:54;15.00;99.90
4922;DHT22;16625;53.624;10.106;2022-09-09T07:01:22;15.00;99.90
4922;DHT22;16625;53.624;10.106;2022-09-09T07:03:50;15.00;99.90
4922;DHT22;16625;53.624;10.106;2022-09-09T07:06:19;14.90;99.90
4922;DHT22;16625;53.624;10.106;2022-09-09T07:08:50;14.90;99.90
4922;DHT22;16625;53.624;10.106;2022-09-09T07:11:18;14.90;99.90
4922;DHT22;16625;53.624;10.106;2022-09-09T07:13:46;15.00;99.90
4922;DHT22;16625;53.624;10.106;2022-09-09T07:16:16;15.10;99.90
4922;DHT22;16625;53.624;10.106;2022-09-09T07:18:44;15.20;99.90
4922;DHT22;16625;53.624;10.106;2022-09-09T07:21:12;15.60;99.90
4922;DHT22;16625;53.624;10.106;2022-09-09T07:23:39;15.60;99.90
4922;DHT22;16625;53.624;10.106;2022-09-09T07:26:11;15.70;99.90
4922;DHT22;16625;53.624;10.106;2022-09-09T07:28:39;15.90;99.90
4922;DHT22;16625;53.624;10.106;2022-09-09T07:31:06;15.70;99.90
4922;DHT22;16625;53.624;10.106;2022-09-09T07:33:35;15.70;99.90
4922;DHT22;16625;53.624;10.106;2022-09-09T07:36:05;15.80;99.90
4922;DHT22;16625;53.624;10.106;2022-09-09T07:38:37;15.70;99.90
4922;DHT22;16625;53.624;10.106;2022-09-09T07:41:05;16.50;99.90
4922;DHT22;16625;53.624;10.106;2022-09-09T07:43:34;15.70;99.90
4922;DHT22;16625;53.624;10.106;2022-09-09T07:46:01;15.80;99.90
4922;DHT22;16625;53.624;10.106;2022-09-09T07:48:28;15.90;99.90
4922;DHT22;16625;53.624;10.106;2022-09-09T07:51:06;16.00;99.90
4922;DHT22;16625;53.624;10.106;2022-09-09T07:53:33;16.30;99.90
4922;DHT22;16625;53.624;10.106;2022-09-09T07:56:06;16.50;99.90
4922;DHT22;16625;53.624;10.106;2022-09-09T07:58:35;16.70;99.90
4922;DHT22;16625;53.624;10.106;2022-09-09T08:01:07;16.90;99.90
4922;DHT22;16625;53.624;10.106;2022-09-09T08:03:34;17.10;99.90
4922;DHT22;16625;53.624;10.106;2022-09-09T08:06:04;17.50;99.90
4922;DHT22;16625;53.624;10.106;2022-09-09T08:08:32;17.90;99.90
4922;DHT22;16625;53.624;10.106;2022-09-09T08:11:08;18.10;99.90
4922;DHT22;16625;53.624;10.106;2022-09-09T08:13:36;18.20;99.90
4922;DHT22;16625;53.624;10.106;2022-09-09T08:16:11;18.10;99.90
4922;DHT22;16625;53.624;10.106;2022-09-09T08:18:38;18.20;99.90
4922;DHT22;16625;53.624;10.106;2022-09-09T08:21:11;17.90;99.90
4922;DHT22;16625;53.624;10.106;2022-09-09T08:23:39;17.90;99.90
4922;DHT22;16625;53.624;10.106;2022-09-09T08:26:09;18.00;99.90
4922;DHT22;16625;53.624;10.106;2022-09-09T08:28:36;18.10;99.90
4922;DHT22;16625;53.624;10.106;2022-09-09T08:31:08;18.10;99.90
4922;DHT22;16625;53.624;10.106;2022-09-09T08:33:35;18.20;99.90
4922;DHT22;16625;53.624;10.106;2022-09-09T08:36:04;18.10;99.90
4922;DHT22;16625;53.624;10.106;2022-09-09T08:38:33;18.00;99.90
4922;DHT22;16625;53.624;10.106;2022-09-09T08:41:13;18.20;99.90
4922;DHT22;16625;53.624;10.106;2022-09-09T08:43:44;18.30;99.90
4922;DHT22;16625;53.624;10.106;2022-09-09T08:46:16;18.50;99.90
4922;DHT22;16625;53.624;10.106;2022-09-09T08:48:52;18.60;99.90
4922;DHT22;16625;53.624;10.106;2022-09-09T08:51:26;18.70;99.90
4922;DHT22;16625;53.624;10.106;2022-09-09T08:53:58;18.80;99.90
4922;DHT22;16625;53.624;10.106;2022-09-09T08:56:27;18.80;99.90
4922;DHT22;16625;53.624;10.106;2022-09-09T08:58:56;18.80;99.90
4922;DHT22;16625;53.624;10.106;2022-09-09T09:01:56;18.70;99.90
4922;DHT22;16625;53.624;10.106;2022-09-09T09:04:48;18.60;99.90
4922;DHT22;16625;53.624;10.106;2022-09-09T09:07:26;18.50;99.90
4922;DHT22;16625;53.624;10.106;2022-09-09T09:10:02;18.90;99.90
4922;DHT22;16625;53.624;10.106;2022-09-09T09:12:36;18.60;99.90
4922;DHT22;16625;53.624;10.106;2022-09-09T09:15:11;18.50;99.90
4922;DHT22;16625;53.624;10.106;2022-09-09T09:17:42;18.50;99.90
4922;DHT22;16625;53.624;10.106;2022-09-09T09:20:12;18.50;99.90
4922;DHT22;16625;53.624;10.106;2022-09-09T09:22:47;18.60;99.90
4922;DHT22;16625;53.624;10.106;2022-09-09T09:25:18;19.30;99.90
4922;DHT22;16625;53.624;10.106;2022-09-09T09:27:52;18.70;99.90
4922;DHT22;16625;53.624;10.106;2022-09-09T09:30:26;18.90;99.90
4922;DHT22;16625;53.624;10.106;2022-09-09T09:33:01;19.70;99.90
4922;DHT22;16625;53.624;10.106;2022-09-09T09:35:29;19.30;99.90
4922;DHT22;16625;53.624;10.106;2022-09-09T09:37:55;19.60;99.90
4922;DHT22;16625;53.624;10.106;2022-09-09T09:40:24;19.80;99.90
4922;DHT22;16625;53.624;10.106;2022-09-09T09:42:53;19.70;99.90
4922;DHT22;16625;53.624;10.106;2022-09-09T09:45:29;19.70;99.90
4922;DHT22;16625;53.624;10.106;2022-09-09T09:47:59;19.80;99.90
4922;DHT22;16625;53.624;10.106;2022-09-09T09:50:27;19.90;99.90
4922;DHT22;16625;53.624;10.106;2022-09-09T09:52:56;20.00;99.90
4922;DHT22;16625;53.624;10.106;2022-09-09T09:55:28;20.00;99.90
4922;DHT22;16625;53.624;10.106;2022-09-09T09:58:06;20.40;99.90
4922;DHT22;16625;53.624;10.106;2022-09-09T10:00:34;20.60;1.00
4922;DHT22;16625;53.624;10.106;2022-09-09T10:03:01;20.60;1.00
4922;DHT22;16625;53.624;10.106;2022-09-09T10:05:29;20.70;1.00
4922;DHT22;16625;53.624;10.106;2022-09-09T10:08:03;20.90;1.00
4922;DHT22;16625;53.624;10.106;2022-09-09T10:10:43;21.00;1.00
4922;DHT22;16625;53.624;10.106;2022-09-09T10:13:18;21.40;99.90
4922;DHT22;16625;53.624;10.106;2022-09-09T10:15:53;21.60;1.00
4922;DHT22;16625;53.624;10.106;2022-09-09T10:18:47;21.30;99.90
4922;DHT22;16625;53.624;10.106;2022-09-09T10:21:27;21.10;99.90
4922;DHT22;16625;53.624;10.106;2022-09-09T10:24:09;21.00;99.90
4922;DHT22;16625;53.624;10.106;2022-09-09T10:26:47;21.10;99.90
4922;DHT22;16625;53.624;10.106;2022-09-09T10:29:29;21.00;1.00
4922;DHT22;16625;53.624;10.106;2022-09-09T10:32:07;21.00;1.00
4922;DHT22;16625;53.624;10.106;2022-09-09T10:34:54;20.90;1.00
4922;DHT22;16625;53.624;10.106;2022-09-09T10:37:35;20.80;1.00
4922;DHT22;16625;53.624;10.106;2022-09-09T10:40:20;20.80;99.90
4922;DHT22;16625;53.624;10.106;2022-09-09T10:42:52;20.90;1.00
4922;DHT22;16625;53.624;10.106;2022-09-09T10:45:25;20.90;1.00
4922;DHT22;16625;53.624;10.106;2022-09-09T10:50:55;20.80;99.90
4922;DHT22;16625;53.624;10.106;2022-09-09T10:53:35;20.80;99.90
4922;DHT22;16625;53.624;10.106;2022-09-09T10:56:06;20.70;1.00
4922;DHT22;16625;53.624;10.106;2022-09-09T10:58:41;20.70;99.90
4922;DHT22;16625;53.624;10.106;2022-09-09T11:01:13;20.80;99.90
4922;DHT22;16625;53.624;10.106;2022-09-09T11:03:43;20.90;35.20
4922;DHT22;16625;53.624;10.106;2022-09-09T11:06:14;21.00;99.90
4922;DHT22;16625;53.624;10.106;2022-09-09T11:08:43;21.00;1.00
4922;DHT22;16625;53.624;10.106;2022-09-09T11:11:13;21.00;6.00
4922;DHT22;16625;53.624;10.106;2022-09-09T11:13:48;21.30;1.00
4922;DHT22;16625;53.624;10.106;2022-09-09T11:16:24;20.90;99.90
4922;DHT22;16625;53.624;10.106;2022-09-09T11:18:57;20.80;99.90
4922;DHT22;16625;53.624;10.106;2022-09-09T11:21:31;20.60;1.00
4922;DHT22;16625;53.624;10.106;2022-09-09T11:24:02;20.40;99.90
4922;DHT22;16625;53.624;10.106;2022-09-09T11:26:36;19.90;40.60
4922;DHT22;16625;53.624;10.106;2022-09-09T11:29:48;20.40;99.90
4922;DHT22;16625;53.624;10.106;2022-09-09T11:35:22;20.60;99.90
4922;DHT22;16625;53.624;10.106;2022-09-09T11:38:09;20.70;1.00
4922;DHT22;16625;53.624;10.106;2022-09-09T11:40:40;20.90;99.90
4922;DHT22;16625;53.624;10.106;2022-09-09T11:43:10;21.20;99.90
4922;DHT22;16625;53.624;10.106;2022-09-09T11:45:40;21.40;99.90
4922;DHT22;16625;53.624;10.106;2022-09-09T11:48:23;21.60;1.00
4922;DHT22;16625;53.624;10.106;2022-09-09T11:50:58;21.60;99.90
4922;DHT22;16625;53.624;10.106;2022-09-09T11:53:26;21.70;99.90
4922;DHT22;16625;53.624;10.106;2022-09-09T11:56:24;21.80;99.90
4922;DHT22;16625;53.624;10.106;2022-09-09T11:58:56;21.90;99.90
4922;DHT22;16625;53.624;10.106;2022-09-09T12:01:39;22.00;1.00
4922;DHT22;16625;53.624;10.106;2022-09-09T12:04:27;22.30;1.00
4922;DHT22;16625;53.624;10.106;2022-09-09T12:06:58;22.30;99.90
4922;DHT22;16625;53.624;10.106;2022-09-09T12:09:33;22.30;1.00
4922;DHT22;16625;53.624;10.106;2022-09-09T12:14:57;22.50;99.90
4922;DHT22;16625;53.624;10.106;2022-09-09T12:17:28;22.60;99.90
4922;DHT22;16625;53.624;10.106;2022-09-09T12:20:14;23.00;99.90
4922;DHT22;16625;53.624;10.106;2022-09-09T12:22:57;22.80;1.00
4922;DHT22;16625;53.624;10.106;2022-09-09T12:25:32;22.40;1.00
4922;DHT22;16625;53.624;10.106;2022-09-09T12:28:05;22.10;94.30
4922;DHT22;16625;53.624;10.106;2022-09-09T12:30:43;21.90;99.90
4922;DHT22;16625;53.624;10.106;2022-09-09T12:33:18;21.60;1.00
4922;DHT22;16625;53.624;10.106;2022-09-09T12:35:50;21.30;99.90
4922;DHT22;16625;53.624;10.106;2022-09-09T12:38:24;21.10;1.00
4922;DHT22;16625;53.624;10.106;2022-09-09T12:40:55;21.10;99.90
4922;DHT22;16625;53.624;10.106;2022-09-09T12:43:24;21.10;1.00
4922;DHT22;16625;53.624;10.106;2022-09-09T12:45:54;21.10;99.90
4922;DHT22;16625;53.624;10.106;2022-09-09T12:48:32;21.10;1.00
4922;DHT22;16625;53.624;10.106;2022-09-09T12:51:00;21.20;99.90
4922;DHT22;16625;53.624;10.106;2022-09-09T12:53:30;21.40;75.60
4922;DHT22;16625;53.624;10.106;2022-09-09T12:55:59;21.70;1.00
4922;DHT22;16625;53.624;10.106;2022-09-09T12:58:29;22.00;1.00
4922;DHT22;16625;53.624;10.106;2022-09-09T13:00:58;22.10;1.00
4922;DHT22;16625;53.624;10.106;2022-09-09T13:03:27;22.10;1.00
4922;DHT22;16625;53.624;10.106;2022-09-09T13:05:58;22.00;99.90
4922;DHT22;16625;53.624;10.106;2022-09-09T13:08:26;21.80;99.90
4922;DHT22;16625;53.624;10.106;2022-09-09T13:10:56;21.80;1.00
4922;DHT22;16625;53.624;10.106;2022-09-09T13:13:27;21.60;99.90
4922;DHT22;16625;53.624;10.106;2022-09-09T13:15:57;21.60;99.90
4922;DHT22;16625;53.624;10.106;2022-09-09T13:18:28;21.20;99.90
4922;DHT22;16625;53.624;10.106;2022-09-09T13:20:56;20.80;90.00
4922;DHT22;16625;53.624;10.106;2022-09-09T13:23:27;20.70;99.90
4922;DHT22;16625;53.624;10.106;2022-09-09T13:25:56;20.50;99.90
4922;DHT22;16625;53.624;10.106;2022-09-09T13:28:26;20.40;99.90
4922;DHT22;16625;53.624;10.106;2022-09-09T13:30:57;20.20;99.90
4922;DHT22;16625;53.624;10.106;2022-09-09T13:33:32;20.00;99.90
4922;DHT22;16625;53.624;10.106;2022-09-09T13:36:01;19.90;1.00
4922;DHT22;16625;53.624;10.106;2022-09-09T13:38:31;19.90;1.00
4922;DHT22;16625;53.624;10.106;2022-09-09T13:41:01;19.80;87.90
4922;DHT22;16625;53.624;10.106;2022-09-09T13:43:31;19.70;99.90
4922;DHT22;16625;53.624;10.106;2022-09-09T13:46:01;19.50;99.90
4922;DHT22;16625;53.624;10.106;2022-09-09T13:48:30;19.60;99.90
4922;DHT22;16625;53.624;10.106;2022-09-09T13:51:01;19.40;99.90
4922;DHT22;16625;53.624;10.106;2022-09-09T13:53:30;19.30;99.90
4922;DHT22;16625;53.624;10.106;2022-09-09T13:55:57;19.30;99.90
4922;DHT22;16625;53.624;10.106;2022-09-09T13:58:25;19.10;99.90
4922;DHT22;16625;53.624;10.106;2022-09-09T14:00:52;18.90;99.90
4922;DHT22;16625;53.624;10.106;2022-09-09T14:03:20;18.70;99.90
4922;DHT22;16625;53.624;10.106;2022-09-09T14:05:49;18.50;99.90
4922;DHT22;16625;53.624;10.106;2022-09-09T14:08:24;18.40;99.90
4922;DHT22;16625;53.624;10.106;2022-09-09T14:10:52;18.20;99.90
4922;DHT22;16625;53.624;10.106;2022-09-09T14:13:23;18.10;99.90
4922;DHT22;16625;53.624;10.106;2022-09-09T14:15:50;18.00;99.90
4922;DHT22;16625;53.624;10.106;2022-09-09T14:18:18;17.80;99.90
4922;DHT22;16625;53.624;10.106;2022-09-09T14:20:45;17.80;99.90
4922;DHT22;16625;53.624;10.106;2022-09-09T14:23:13;17.70;99.90
4922;DHT22;16625;53.624;10.106;2022-09-09T14:25:41;18.40;99.90
4922;DHT22;16625;53.624;10.106;2022-09-09T14:28:13;17.70;99.90
4922;DHT22;16625;53.624;10.106;2022-09-09T14:30:41;17.60;99.90
4922;DHT22;16625;53.624;10.106;2022-09-09T14:33:10;17.60;99.90
4922;DHT22;16625;53.624;10.106;2022-09-09T14:35:38;17.60;99.90
4922;DHT22;16625;53.624;10.106;2022-09-09T14:38:05;17.60;99.90
4922;DHT22;16625;53.624;10.106;2022-09-09T14:40:35;17.60;99.90
4922;DHT22;16625;53.624;10.106;2022-09-09T14:43:02;17.50;99.90
4922;DHT22;16625;53.624;10.106;2022-09-09T14:45:29;17.50;99.90
4922;DHT22;16625;53.624;10.106;2022-09-09T14:47:56;17.60;99.90
4922;DHT22;16625;53.624;10.106;2022-09-09T14:50:23;17.50;99.90
4922;DHT22;16625;53.624;10.106;2022-09-09T14:52:50;17.50;99.90
4922;DHT22;16625;53.624;10.106;2022-09-09T14:55:17;17.50;99.90
4922;DHT22;16625;53.624;10.106;2022-09-09T14:57:46;17.40;99.90
4922;DHT22;16625;53.624;10.106;2022-09-09T15:00:13;17.30;99.90
4922;DHT22;16625;53.624;10.106;2022-09-09T15:02:40;17.30;99.90
4922;DHT22;16625;53.624;10.106;2022-09-09T15:05:07;17.30;99.90
4922;DHT22;16625;53.624;10.106;2022-09-09T15:07:34;17.30;99.90
4922;DHT22;16625;53.624;10.106;2022-09-09T15:10:02;17.20;99.90
4922;DHT22;16625;53.624;10.106;2022-09-09T15:14:17;17.20;99.90
4922;DHT22;16625;53.624;10.106;2022-09-09T15:16:44;17.10;99.90
4922;DHT22;16625;53.624;10.106;2022-09-09T15:19:11;16.80;99.90
4922;DHT22;16625;53.624;10.106;2022-09-09T15:21:38;16.90;99.90
4922;DHT22;16625;53.624;10.106;2022-09-09T15:24:05;16.90;99.90
4922;DHT22;16625;53.624;10.106;2022-09-09T15:26:33;16.90;99.90
4922;DHT22;16625;53.624;10.106;2022-09-09T15:29:01;16.90;99.90
4922;DHT22;16625;53.624;10.106;2022-09-09T15:31:31;16.90;99.90
4922;DHT22;16625;53.624;10.106;2022-09-09T15:33:59;16.90;99.90
4922;DHT22;16625;53.624;10.106;2022-09-09T15:36:28;16.90;99.90
4922;DHT22;16625;53.624;10.106;2022-09-09T15:38:55;16.90;99.90
4922;DHT22;16625;53.624;10.106;2022-09-09T15:41:22;17.00;99.90
4922;DHT22;16625;53.624;10.106;2022-09-09T15:43:50;17.00;99.90
4922;DHT22;16625;53.624;10.106;2022-09-09T15:46:30;17.00;99.90
4922;DHT22;16625;53.624;10.106;2022-09-09T15:49:02;17.10;99.90
4922;DHT22;16625;53.624;10.106;2022-09-09T15:51:30;17.20;99.90
4922;DHT22;16625;53.624;10.106;2022-09-09T15:53:58;17.10;99.90
4922;DHT22;16625;53.624;10.106;2022-09-09T15:56:26;17.30;99.90
4922;DHT22;16625;53.624;10.106;2022-09-09T15:58:55;17.40;99.90
4922;DHT22;16625;53.624;10.106;2022-09-09T16:01:22;17.50;99.90
4922;DHT22;16625;53.624;10.106;2022-09-09T16:03:51;17.60;99.90
4922;DHT22;16625;53.624;10.106;2022-09-09T16:06:19;17.80;99.90
4922;DHT22;16625;53.624;10.106;2022-09-09T16:08:48;17.80;99.90